sensor_id;sensor_type;location;lat;lon;timestamp;P1;durP1;ratioP1;P2;durP2;ratioP2
5191;SDS011;2615;44.524;11.284;2023-07-22T00:01:38;10.93;;;4.43;;
5191;SDS011;2615;44.524;11.284;2023-07-22T00:04:06;9.80;;;3.93;;
5191;SDS011;2615;44.524;11.284;2023-07-22T00:06:35;11.70;;;3.10;;
5191;SDS011;2615;44.524;11.284;2023-07-22T00:09:04;12.30;;;4.63;;
5191;SDS011;2615;44.524;11.284;2023-07-22T00:11:33;18.63;;;4.80;;
5191;SDS011;2615;44.524;11.284;2023-07-22T00:14:02;9.83;;;4.10;;
5191;SDS011;2615;44.524;11.284;2023-07-22T00:16:32;9.77;;;3.63;;
5191;SDS011;2615;44.524;11.284;2023-07-22T00:19:01;16.07;;;5.10;;
5191;SDS011;2615;44.524;11.284;2023-07-22T00:21:29;10.93;;;3.77;;
5191;SDS011;2615;44.524;11.284;2023-07-22T00:23:58;11.90;;;3.67;;
5191;SDS011;2615;44.524;11.284;2023-07-22T00:26:26;11.60;;;4.73;;
5191;SDS011;2615;44.524;11.284;2023-07-22T00:28:56;13.87;;;4.43;;
5191;SDS011;2615;44.524;11.284;2023-07-22T00:31:25;9.43;;;4.03;;
5191;SDS011;2615;44.524;11.284;2023-07-22T00:33:54;17.60;;;4.80;;
5191;SDS011;2615;44.524;11.284;2023-07-22T00:36:22;16.13;;;5.60;;
5191;SDS011;2615;44.524;11.284;2023-07-22T00:38:52;11.30;;;4.10;;
5191;SDS011;2615;44.524;11.284;2023-07-22T00:41:20;15.80;;;4.30;;
5191;SDS011;2615;44.524;11.284;2023-07-22T00:43:49;11.67;;;3.67;;
5191;SDS011;2615;44.524;11.284;2023-07-22T00:46:19;9.53;;;3.80;;
5191;SDS011;2615;44.524;11.284;2023-07-22T00:48:47;15.33;;;4.07;;
5191;SDS011;2615;44.524;11.284;2023-07-22T00:51:17;13.27;;;4.20;;
5191;SDS011;2615;44.524;11.284;2023-07-22T00:53:47;9.17;;;4.17;;
5191;SDS011;2615;44.524;11.284;2023-07-22T00:56:16;13.00;;;4.23;;
5191;SDS011;2615;44.524;11.284;2023-07-22T00:58:44;9.07;;;3.77;;
5191;SDS011;2615;44.524;11.284;2023-07-22T01:01:13;9.97;;;4.07;;
5191;SDS011;2615;44.524;11.284;2023-07-22T01:03:42;9.77;;;4.37;;
5191;SDS011;2615;44.524;11.284;2023-07-22T01:06:12;12.40;;;4.07;;
5191;SDS011;2615;44.524;11.284;2023-07-22T01:08:44;7.13;;;3.73;;
5191;SDS011;2615;44.524;11.284;2023-07-22T01:11:13;6.83;;;3.20;;
5191;SDS011;2615;44.524;11.284;2023-07-22T01:13:42;8.90;;;4.37;;
5191;SDS011;2615;44.524;11.284;2023-07-22T01:16:10;11.20;;;4.60;;
5191;SDS011;2615;44.524;11.284;2023-07-22T01:18:39;8.90;;;3.60;;
5191;SDS011;2615;44.524;11.284;2023-07-22T01:21:09;9.60;;;4.10;;
5191;SDS011;2615;44.524;11.284;2023-07-22T01:23:41;11.50;;;4.20;;
5191;SDS011;2615;44.524;11.284;2023-07-22T01:26:09;11.47;;;4.87;;
5191;SDS011;2615;44.524;11.284;2023-07-22T01:28:38;11.40;;;5.30;;
5191;SDS011;2615;44.524;11.284;2023-07-22T01:31:07;10.50;;;5.20;;
5191;SDS011;2615;44.524;11.284;2023-07-22T01:33:35;12.27;;;5.90;;
5191;SDS011;2615;44.524;11.284;2023-07-22T01:36:04;14.90;;;5.70;;
5191;SDS011;2615;44.524;11.284;2023-07-22T01:38:34;10.00;;;4.83;;
5191;SDS011;2615;44.524;11.284;2023-07-22T01:41:03;16.20;;;5.80;;
5191;SDS011;2615;44.524;11.284;2023-07-22T01:43:32;11.13;;;5.33;;
5191;SDS011;2615;44.524;11.284;2023-07-22T01:46:00;14.73;;;3.87;;
5191;SDS011;2615;44.524;11.284;2023-07-22T01:48:29;6.90;;;3.87;;
5191;SDS011;2615;44.524;11.284;2023-07-22T01:50:58;6.70;;;3.50;;
5191;SDS011;2615;44.524;11.284;2023-07-22T01:53:27;6.10;;;3.43;;
5191;SDS011;2615;44.524;11.284;2023-07-22T01:55:55;8.80;;;4.10;;
5191;SDS011;2615;44.524;11.284;2023-07-22T01:58:25;7.57;;;3.70;;
5191;SDS011;2615;44.524;11.284;2023-07-22T02:00:53;5.57;;;3.23;;
5191;SDS011;2615;44.524;11.284;2023-07-22T02:03:22;6.83;;;3.50;;
5191;SDS011;2615;44.524;11.284;2023-07-22T02:05:51;7.10;;;3.70;;
5191;SDS011;2615;44.524;11.284;2023-07-22T02:08:20;6.43;;;3.07;;
5191;SDS011;2615;44.524;11.284;2023-07-22T02:10:49;6.87;;;3.27;;
5191;SDS011;2615;44.524;11.284;2023-07-22T02:13:17;4.47;;;2.60;;
5191;SDS011;2615;44.524;11.284;2023-07-22T02:15:47;4.67;;;2.53;;
5191;SDS011;2615;44.524;11.284;2023-07-22T02:18:15;9.70;;;3.43;;
5191;SDS011;2615;44.524;11.284;2023-07-22T02:20:44;8.17;;;3.43;;
5191;SDS011;2615;44.524;11.284;2023-07-22T02:23:12;14.50;;;3.63;;
5191;SDS011;2615;44.524;11.284;2023-07-22T02:25:41;5.30;;;2.70;;
5191;SDS011;2615;44.524;11.284;2023-07-22T02:28:09;9.67;;;3.57;;
5191;SDS011;2615;44.524;11.284;2023-07-22T02:30:38;7.00;;;3.73;;
5191;SDS011;2615;44.524;11.284;2023-07-22T02:33:08;5.80;;;2.60;;
5191;SDS011;2615;44.524;11.284;2023-07-22T02:35:36;5.90;;;3.03;;
5191;SDS011;2615;44.524;11.284;2023-07-22T02:38:05;6.10;;;2.80;;
5191;SDS011;2615;44.524;11.284;2023-07-22T02:40:34;6.90;;;3.67;;
5191;SDS011;2615;44.524;11.284;2023-07-22T02:43:02;8.40;;;4.40;;
5191;SDS011;2615;44.524;11.284;2023-07-22T02:45:32;6.77;;;3.07;;
5191;SDS011;2615;44.524;11.284;2023-07-22T02:48:00;5.00;;;2.63;;
5191;SDS011;2615;44.524;11.284;2023-07-22T02:50:31;6.63;;;3.30;;
5191;SDS011;2615;44.524;11.284;2023-07-22T02:53:00;7.47;;;3.03;;
5191;SDS011;2615;44.524;11.284;2023-07-22T02:55:28;6.00;;;3.90;;
5191;SDS011;2615;44.524;11.284;2023-07-22T02:57:57;6.20;;;2.80;;
5191;SDS011;2615;44.524;11.284;2023-07-22T03:00:25;6.03;;;2.90;;
5191;SDS011;2615;44.524;11.284;2023-07-22T03:02:55;13.27;;;3.57;;
5191;SDS011;2615;44.524;11.284;2023-07-22T03:05:27;6.47;;;3.90;;
5191;SDS011;2615;44.524;11.284;2023-07-22T03:07:58;5.20;;;2.97;;
5191;SDS011;2615;44.524;11.284;2023-07-22T03:10:27;4.23;;;2.93;;
5191;SDS011;2615;44.524;11.284;2023-07-22T03:12:55;11.53;;;4.10;;
5191;SDS011;2615;44.524;11.284;2023-07-22T03:15:26;7.00;;;3.63;;
5191;SDS011;2615;44.524;11.284;2023-07-22T03:17:55;9.37;;;4.20;;
5191;SDS011;2615;44.524;11.284;2023-07-22T03:20:26;7.23;;;3.60;;
5191;SDS011;2615;44.524;11.284;2023-07-22T03:22:54;12.50;;;4.07;;
5191;SDS011;2615;44.524;11.284;2023-07-22T03:25:24;5.50;;;3.53;;
5191;SDS011;2615;44.524;11.284;2023-07-22T03:27:52;6.13;;;2.93;;
5191;SDS011;2615;44.524;11.284;2023-07-22T03:30:21;8.13;;;4.07;;
5191;SDS011;2615;44.524;11.284;2023-07-22T03:32:50;6.13;;;3.50;;
5191;SDS011;2615;44.524;11.284;2023-07-22T03:35:19;7.73;;;3.83;;
5191;SDS011;2615;44.524;11.284;2023-07-22T03:37:47;6.83;;;3.40;;
5191;SDS011;2615;44.524;11.284;2023-07-22T03:40:16;5.50;;;2.80;;
5191;SDS011;2615;44.524;11.284;2023-07-22T03:42:48;7.30;;;3.70;;
5191;SDS011;2615;44.524;11.284;2023-07-22T03:45:17;13.10;;;3.93;;
5191;SDS011;2615;44.524;11.284;2023-07-22T03:47:50;8.43;;;3.40;;
5191;SDS011;2615;44.524;11.284;2023-07-22T03:50:19;12.83;;;4.33;;
5191;SDS011;2615;44.524;11.284;2023-07-22T03:52:47;8.70;;;3.13;;
5191;SDS011;2615;44.524;11.284;2023-07-22T03:55:16;7.73;;;3.10;;
5191;SDS011;2615;44.524;11.284;2023-07-22T03:57:47;11.37;;;2.77;;
5191;SDS011;2615;44.524;11.284;2023-07-22T04:00:16;4.63;;;2.80;;
5191;SDS011;2615;44.524;11.284;2023-07-22T04:02:44;7.37;;;2.80;;
5191;SDS011;2615;44.524;11.284;2023-07-22T04:05:13;9.53;;;4.93;;
5191;SDS011;2615;44.524;11.284;2023-07-22T04:07:41;8.10;;;3.10;;
5191;SDS011;2615;44.524;11.284;2023-07-22T04:10:13;9.50;;;3.67;;
5191;SDS011;2615;44.524;11.284;2023-07-22T04:12:41;8.90;;;3.00;;
5191;SDS011;2615;44.524;11.284;2023-07-22T04:15:11;7.77;;;3.17;;
5191;SDS011;2615;44.524;11.284;2023-07-22T04:17:41;8.77;;;3.33;;
5191;SDS011;2615;44.524;11.284;2023-07-22T04:20:10;5.87;;;3.10;;
5191;SDS011;2615;44.524;11.284;2023-07-22T04:22:39;7.00;;;3.50;;
5191;SDS011;2615;44.524;11.284;2023-07-22T04:25:07;10.97;;;4.87;;
5191;SDS011;2615;44.524;11.284;2023-07-22T04:27:36;14.53;;;4.83;;
5191;SDS011;2615;44.524;11.284;2023-07-22T04:30:05;49.23;;;7.67;;
5191;SDS011;2615;44.524;11.284;2023-07-22T04:32:37;6.03;;;3.70;;
5191;SDS011;2615;44.524;11.284;2023-07-22T04:35:06;12.67;;;7.27;;
5191;SDS011;2615;44.524;11.284;2023-07-22T04:37:36;8.70;;;5.50;;
5191;SDS011;2615;44.524;11.284;2023-07-22T04:40:05;10.53;;;5.37;;
5191;SDS011;2615;44.524;11.284;2023-07-22T04:42:40;23.30;;;7.13;;
5191;SDS011;2615;44.524;11.284;2023-07-22T04:45:09;12.00;;;6.43;;
5191;SDS011;2615;44.524;11.284;2023-07-22T04:47:39;13.50;;;7.20;;
5191;SDS011;2615;44.524;11.284;2023-07-22T04:50:11;12.63;;;6.63;;
5191;SDS011;2615;44.524;11.284;2023-07-22T04:52:41;11.60;;;7.23;;
5191;SDS011;2615;44.524;11.284;2023-07-22T04:55:10;16.37;;;6.90;;
5191;SDS011;2615;44.524;11.284;2023-07-22T04:57:39;13.50;;;7.37;;
5191;SDS011;2615;44.524;11.284;2023-07-22T05:00:11;12.47;;;7.57;;
5191;SDS011;2615;44.524;11.284;2023-07-22T05:02:44;10.23;;;5.60;;
5191;SDS011;2615;44.524;11.284;2023-07-22T05:05:13;12.70;;;7.10;;
5191;SDS011;2615;44.524;11.284;2023-07-22T05:07:42;15.07;;;7.40;;
5191;SDS011;2615;44.524;11.284;2023-07-22T05:10:12;11.93;;;6.20;;
5191;SDS011;2615;44.524;11.284;2023-07-22T05:12:40;12.43;;;6.67;;
5191;SDS011;2615;44.524;11.284;2023-07-22T05:15:10;12.30;;;6.73;;
5191;SDS011;2615;44.524;11.284;2023-07-22T05:17:39;9.40;;;6.00;;
5191;SDS011;2615;44.524;11.284;2023-07-22T05:20:10;18.03;;;7.27;;
5191;SDS011;2615;44.524;11.284;2023-07-22T05:22:39;10.80;;;6.27;;
5191;SDS011;2615;44.524;11.284;2023-07-22T05:25:08;14.80;;;6.80;;
5191;SDS011;2615;44.524;11.284;2023-07-22T05:27:37;10.00;;;6.23;;
5191;SDS011;2615;44.524;11.284;2023-07-22T05:30:06;11.13;;;5.60;;
5191;SDS011;2615;44.524;11.284;2023-07-22T05:32:45;12.57;;;5.77;;
5191;SDS011;2615;44.524;11.284;2023-07-22T05:35:15;15.20;;;5.50;;
5191;SDS011;2615;44.524;11.284;2023-07-22T05:37:44;31.63;;;7.53;;
5191;SDS011;2615;44.524;11.284;2023-07-22T05:40:12;11.27;;;6.40;;
5191;SDS011;2615;44.524;11.284;2023-07-22T05:42:41;11.87;;;7.57;;
5191;SDS011;2615;44.524;11.284;2023-07-22T05:45:10;17.87;;;6.30;;
5191;SDS011;2615;44.524;11.284;2023-07-22T05:47:41;11.77;;;6.13;;
5191;SDS011;2615;44.524;11.284;2023-07-22T05:50:10;12.70;;;6.70;;
5191;SDS011;2615;44.524;11.284;2023-07-22T05:52:40;12.00;;;6.40;;
5191;SDS011;2615;44.524;11.284;2023-07-22T05:55:09;11.30;;;6.50;;
5191;SDS011;2615;44.524;11.284;2023-07-22T05:57:37;11.47;;;6.00;;
5191;SDS011;2615;44.524;11.284;2023-07-22T06:00:06;11.97;;;5.50;;
5191;SDS011;2615;44.524;11.284;2023-07-22T06:02:36;13.10;;;6.33;;
5191;SDS011;2615;44.524;11.284;2023-07-22T06:05:04;8.07;;;5.70;;
5191;SDS011;2615;44.524;11.284;2023-07-22T06:07:33;24.00;;;7.67;;
5191;SDS011;2615;44.524;11.284;2023-07-22T06:10:05;14.73;;;8.40;;
5191;SDS011;2615;44.524;11.284;2023-07-22T06:12:35;12.20;;;7.23;;
5191;SDS011;2615;44.524;11.284;2023-07-22T06:15:03;14.20;;;6.23;;
5191;SDS011;2615;44.524;11.284;2023-07-22T06:17:32;12.77;;;6.70;;
5191;SDS011;2615;44.524;11.284;2023-07-22T06:20:01;18.90;;;7.57;;
5191;SDS011;2615;44.524;11.284;2023-07-22T06:22:30;12.83;;;6.93;;
5191;SDS011;2615;44.524;11.284;2023-07-22T06:24:59;9.50;;;5.27;;
5191;SDS011;2615;44.524;11.284;2023-07-22T06:27:29;14.47;;;6.53;;
5191;SDS011;2615;44.524;11.284;2023-07-22T06:29:58;8.93;;;5.43;;
5191;SDS011;2615;44.524;11.284;2023-07-22T06:32:26;13.67;;;7.03;;
5191;SDS011;2615;44.524;11.284;2023-07-22T06:34:57;16.37;;;6.93;;
5191;SDS011;2615;44.524;11.284;2023-07-22T06:37:25;12.60;;;7.10;;
5191;SDS011;2615;44.524;11.284;2023-07-22T06:39:54;20.30;;;6.50;;
5191;SDS011;2615;44.524;11.284;2023-07-22T06:42:22;13.20;;;6.00;;
5191;SDS011;2615;44.524;11.284;2023-07-22T06:44:52;13.00;;;9.20;;
5191;SDS011;2615;44.524;11.284;2023-07-22T06:47:21;12.80;;;8.60;;
5191;SDS011;2615;44.524;11.284;2023-07-22T06:49:49;12.53;;;6.10;;
5191;SDS011;2615;44.524;11.284;2023-07-22T06:52:18;7.73;;;5.97;;
5191;SDS011;2615;44.524;11.284;2023-07-22T06:54:46;11.57;;;6.80;;
5191;SDS011;2615;44.524;11.284;2023-07-22T06:57:15;8.93;;;5.77;;
5191;SDS011;2615;44.524;11.284;2023-07-22T06:59:43;12.10;;;6.83;;
5191;SDS011;2615;44.524;11.284;2023-07-22T07:02:13;20.83;;;7.03;;
5191;SDS011;2615;44.524;11.284;2023-07-22T07:04:42;18.43;;;9.40;;
5191;SDS011;2615;44.524;11.284;2023-07-22T07:07:10;9.87;;;5.40;;
5191;SDS011;2615;44.524;11.284;2023-07-22T07:09:39;14.00;;;7.83;;
5191;SDS011;2615;44.524;11.284;2023-07-22T07:12:08;13.20;;;5.93;;
5191;SDS011;2615;44.524;11.284;2023-07-22T07:14:36;10.27;;;5.63;;
5191;SDS011;2615;44.524;11.284;2023-07-22T07:17:05;8.83;;;5.23;;
5191;SDS011;2615;44.524;11.284;2023-07-22T07:19:35;8.50;;;5.50;;
5191;SDS011;2615;44.524;11.284;2023-07-22T07:22:03;11.30;;;5.00;;
5191;SDS011;2615;44.524;11.284;2023-07-22T07:24:32;9.47;;;4.60;;
5191;SDS011;2615;44.524;11.284;2023-07-22T07:27:00;7.83;;;4.63;;
5191;SDS011;2615;44.524;11.284;2023-07-22T07:29:29;13.50;;;5.63;;
5191;SDS011;2615;44.524;11.284;2023-07-22T07:32:17;14.50;;;6.47;;
5191;SDS011;2615;44.524;11.284;2023-07-22T07:34:47;8.50;;;4.93;;
5191;SDS011;2615;44.524;11.284;2023-07-22T07:37:16;9.70;;;4.57;;
5191;SDS011;2615;44.524;11.284;2023-07-22T07:39:44;13.93;;;5.37;;
5191;SDS011;2615;44.524;11.284;2023-07-22T07:42:13;9.83;;;4.60;;
5191;SDS011;2615;44.524;11.284;2023-07-22T07:44:41;10.13;;;4.40;;
5191;SDS011;2615;44.524;11.284;2023-07-22T07:47:09;10.30;;;4.00;;
5191;SDS011;2615;44.524;11.284;2023-07-22T07:49:38;8.97;;;4.00;;
5191;SDS011;2615;44.524;11.284;2023-07-22T07:52:08;8.23;;;4.13;;
5191;SDS011;2615;44.524;11.284;2023-07-22T07:54:36;11.50;;;4.90;;
5191;SDS011;2615;44.524;11.284;2023-07-22T07:57:05;9.83;;;4.50;;
5191;SDS011;2615;44.524;11.284;2023-07-22T07:59:34;13.23;;;3.80;;
5191;SDS011;2615;44.524;11.284;2023-07-22T08:02:05;9.70;;;4.40;;
5191;SDS011;2615;44.524;11.284;2023-07-22T08:04:37;9.13;;;4.90;;
5191;SDS011;2615;44.524;11.284;2023-07-22T08:07:05;11.23;;;5.13;;
5191;SDS011;2615;44.524;11.284;2023-07-22T08:09:36;8.83;;;3.70;;
5191;SDS011;2615;44.524;11.284;2023-07-22T08:12:04;10.97;;;4.83;;
5191;SDS011;2615;44.524;11.284;2023-07-22T08:14:34;6.80;;;4.57;;
5191;SDS011;2615;44.524;11.284;2023-07-22T08:17:03;9.77;;;4.47;;
5191;SDS011;2615;44.524;11.284;2023-07-22T08:19:32;13.70;;;5.17;;
5191;SDS011;2615;44.524;11.284;2023-07-22T08:22:00;10.40;;;4.47;;
5191;SDS011;2615;44.524;11.284;2023-07-22T08:24:30;13.43;;;4.43;;
5191;SDS011;2615;44.524;11.284;2023-07-22T08:26:59;9.80;;;4.67;;
5191;SDS011;2615;44.524;11.284;2023-07-22T08:29:27;11.60;;;5.10;;
5191;SDS011;2615;44.524;11.284;2023-07-22T08:31:55;11.63;;;4.70;;
5191;SDS011;2615;44.524;11.284;2023-07-22T08:34:23;14.57;;;6.03;;
5191;SDS011;2615;44.524;11.284;2023-07-22T08:36:51;9.20;;;5.00;;
5191;SDS011;2615;44.524;11.284;2023-07-22T08:39:20;10.27;;;4.47;;
5191;SDS011;2615;44.524;11.284;2023-07-22T08:41:49;12.60;;;4.70;;
5191;SDS011;2615;44.524;11.284;2023-07-22T08:44:18;11.00;;;4.93;;
5191;SDS011;2615;44.524;11.284;2023-07-22T08:46:50;9.47;;;5.50;;
5191;SDS011;2615;44.524;11.284;2023-07-22T08:49:23;10.47;;;5.80;;
5191;SDS011;2615;44.524;11.284;2023-07-22T08:51:53;9.00;;;4.60;;
5191;SDS011;2615;44.524;11.284;2023-07-22T08:54:22;11.00;;;4.50;;
5191;SDS011;2615;44.524;11.284;2023-07-22T08:56:52;13.33;;;4.57;;
5191;SDS011;2615;44.524;11.284;2023-07-22T08:59:22;11.33;;;5.20;;
5191;SDS011;2615;44.524;11.284;2023-07-22T09:01:51;8.27;;;5.00;;
5191;SDS011;2615;44.524;11.284;2023-07-22T09:04:20;8.30;;;5.03;;
5191;SDS011;2615;44.524;11.284;2023-07-22T09:06:48;8.93;;;5.73;;
5191;SDS011;2615;44.524;11.284;2023-07-22T09:09:17;8.23;;;5.07;;
5191;SDS011;2615;44.524;11.284;2023-07-22T09:11:46;8.73;;;5.47;;
5191;SDS011;2615;44.524;11.284;2023-07-22T09:14:16;9.47;;;5.77;;
5191;SDS011;2615;44.524;11.284;2023-07-22T09:17:03;7.73;;;4.90;;
5191;SDS011;2615;44.524;11.284;2023-07-22T09:19:32;7.73;;;4.87;;
5191;SDS011;2615;44.524;11.284;2023-07-22T09:22:00;9.70;;;5.03;;
5191;SDS011;2615;44.524;11.284;2023-07-22T09:24:28;8.60;;;4.90;;
5191;SDS011;2615;44.524;11.284;2023-07-22T09:26:57;14.53;;;5.63;;
5191;SDS011;2615;44.524;11.284;2023-07-22T09:29:34;7.07;;;5.50;;
5191;SDS011;2615;44.524;11.284;2023-07-22T09:32:03;16.17;;;6.20;;
5191;SDS011;2615;44.524;11.284;2023-07-22T09:34:32;7.30;;;4.57;;
5191;SDS011;2615;44.524;11.284;2023-07-22T09:37:00;6.50;;;4.67;;
5191;SDS011;2615;44.524;11.284;2023-07-22T09:39:30;10.13;;;4.63;;
5191;SDS011;2615;44.524;11.284;2023-07-22T09:41:58;11.40;;;4.77;;
5191;SDS011;2615;44.524;11.284;2023-07-22T09:44:29;9.27;;;6.50;;
5191;SDS011;2615;44.524;11.284;2023-07-22T09:47:00;8.70;;;5.07;;
5191;SDS011;2615;44.524;11.284;2023-07-22T09:49:39;11.20;;;5.07;;
5191;SDS011;2615;44.524;11.284;2023-07-22T09:52:09;12.40;;;5.50;;
5191;SDS011;2615;44.524;11.284;2023-07-22T09:54:46;11.37;;;4.73;;
5191;SDS011;2615;44.524;11.284;2023-07-22T09:57:15;8.63;;;5.37;;
5191;SDS011;2615;44.524;11.284;2023-07-22T09:59:44;9.50;;;5.50;;
5191;SDS011;2615;44.524;11.284;2023-07-22T10:02:16;7.93;;;5.00;;
5191;SDS011;2615;44.524;11.284;2023-07-22T10:04:46;9.33;;;4.70;;
5191;SDS011;2615;44.524;11.284;2023-07-22T10:07:19;9.73;;;4.50;;
5191;SDS011;2615;44.524;11.284;2023-07-22T10:09:48;12.33;;;5.57;;
5191;SDS011;2615;44.524;11.284;2023-07-22T10:12:18;7.60;;;5.37;;
5191;SDS011;2615;44.524;11.284;2023-07-22T10:14:47;10.30;;;5.83;;
5191;SDS011;2615;44.524;11.284;2023-07-22T10:17:18;9.07;;;5.20;;
5191;SDS011;2615;44.524;11.284;2023-07-22T10:19:46;9.10;;;5.13;;
5191;SDS011;2615;44.524;11.284;2023-07-22T10:22:15;9.60;;;5.30;;
5191;SDS011;2615;44.524;11.284;2023-07-22T10:24:43;12.03;;;4.90;;
5191;SDS011;2615;44.524;11.284;2023-07-22T10:27:14;14.13;;;5.90;;
5191;SDS011;2615;44.524;11.284;2023-07-22T10:29:44;11.50;;;5.90;;
5191;SDS011;2615;44.524;11.284;2023-07-22T10:32:13;20.03;;;6.03;;
5191;SDS011;2615;44.524;11.284;2023-07-22T10:34:44;15.63;;;6.10;;
5191;SDS011;2615;44.524;11.284;2023-07-22T10:37:12;20.77;;;6.43;;
5191;SDS011;2615;44.524;11.284;2023-07-22T10:39:41;11.93;;;6.17;;
5191;SDS011;2615;44.524;11.284;2023-07-22T10:42:09;10.23;;;4.70;;
5191;SDS011;2615;44.524;11.284;2023-07-22T10:44:50;19.33;;;6.17;;
5191;SDS011;2615;44.524;11.284;2023-07-22T10:47:31;10.27;;;4.70;;
5191;SDS011;2615;44.524;11.284;2023-07-22T10:50:06;12.50;;;5.63;;
5191;SDS011;2615;44.524;11.284;2023-07-22T10:52:43;11.17;;;5.73;;
5191;SDS011;2615;44.524;11.284;2023-07-22T10:55:14;18.20;;;6.73;;
5191;SDS011;2615;44.524;11.284;2023-07-22T10:57:53;17.60;;;5.77;;
5191;SDS011;2615;44.524;11.284;2023-07-22T11:00:22;14.87;;;4.97;;
5191;SDS011;2615;44.524;11.284;2023-07-22T11:03:18;7.40;;;5.40;;
5191;SDS011;2615;44.524;11.284;2023-07-22T11:06:10;20.60;;;6.97;;
5191;SDS011;2615;44.524;11.284;2023-07-22T11:08:42;14.70;;;5.93;;
5191;SDS011;2615;44.524;11.284;2023-07-22T11:11:10;9.33;;;5.57;;
5191;SDS011;2615;44.524;11.284;2023-07-22T11:13:39;17.57;;;6.87;;
5191;SDS011;2615;44.524;11.284;2023-07-22T11:16:10;11.57;;;6.37;;
5191;SDS011;2615;44.524;11.284;2023-07-22T11:18:39;11.90;;;6.70;;
5191;SDS011;2615;44.524;11.284;2023-07-22T11:21:11;15.73;;;6.07;;
5191;SDS011;2615;44.524;11.284;2023-07-22T11:23:40;10.43;;;5.57;;
5191;SDS011;2615;44.524;11.284;2023-07-22T11:26:08;16.40;;;5.90;;
5191;SDS011;2615;44.524;11.284;2023-07-22T11:28:36;9.00;;;6.00;;
5191;SDS011;2615;44.524;11.284;2023-07-22T11:31:04;11.80;;;6.73;;
5191;SDS011;2615;44.524;11.284;2023-07-22T11:33:39;11.73;;;5.73;;
5191;SDS011;2615;44.524;11.284;2023-07-22T11:36:11;13.07;;;5.80;;
5191;SDS011;2615;44.524;11.284;2023-07-22T11:38:39;10.90;;;5.97;;
5191;SDS011;2615;44.524;11.284;2023-07-22T11:41:07;9.13;;;5.90;;
5191;SDS011;2615;44.524;11.284;2023-07-22T11:43:37;9.97;;;6.53;;
5191;SDS011;2615;44.524;11.284;2023-07-22T11:46:06;9.83;;;6.00;;
5191;SDS011;2615;44.524;11.284;2023-07-22T11:48:34;8.53;;;5.90;;
5191;SDS011;2615;44.524;11.284;2023-07-22T11:51:02;8.33;;;5.53;;
5191;SDS011;2615;44.524;11.284;2023-07-22T11:53:33;9.57;;;7.23;;
5191;SDS011;2615;44.524;11.284;2023-07-22T11:56:02;14.83;;;9.10;;
5191;SDS011;2615;44.524;11.284;2023-07-22T11:58:30;9.07;;;7.50;;
5191;SDS011;2615;44.524;11.284;2023-07-22T12:01:02;13.80;;;6.57;;
5191;SDS011;2615;44.524;11.284;2023-07-22T12:03:32;14.63;;;6.97;;
5191;SDS011;2615;44.524;11.284;2023-07-22T12:06:01;10.93;;;6.30;;
5191;SDS011;2615;44.524;11.284;2023-07-22T12:08:30;8.97;;;6.03;;
5191;SDS011;2615;44.524;11.284;2023-07-22T12:11:00;12.43;;;7.70;;
5191;SDS011;2615;44.524;11.284;2023-07-22T12:13:28;12.33;;;7.00;;
5191;SDS011;2615;44.524;11.284;2023-07-22T12:16:00;11.37;;;5.90;;
5191;SDS011;2615;44.524;11.284;2023-07-22T12:18:40;8.57;;;5.77;;
5191;SDS011;2615;44.524;11.284;2023-07-22T12:21:09;10.93;;;5.90;;
5191;SDS011;2615;44.524;11.284;2023-07-22T12:23:37;9.73;;;5.93;;
5191;SDS011;2615;44.524;11.284;2023-07-22T12:26:07;9.60;;;5.13;;
5191;SDS011;2615;44.524;11.284;2023-07-22T12:28:35;8.30;;;5.63;;
5191;SDS011;2615;44.524;11.284;2023-07-22T12:31:03;10.93;;;5.67;;
5191;SDS011;2615;44.524;11.284;2023-07-22T12:33:31;9.60;;;7.10;;
5191;SDS011;2615;44.524;11.284;2023-07-22T12:35:59;12.73;;;6.20;;
5191;SDS011;2615;44.524;11.284;2023-07-22T12:38:28;19.00;;;5.70;;
5191;SDS011;2615;44.524;11.284;2023-07-22T12:40:56;9.50;;;5.00;;
5191;SDS011;2615;44.524;11.284;2023-07-22T12:43:25;9.90;;;5.70;;
5191;SDS011;2615;44.524;11.284;2023-07-22T12:45:53;10.77;;;4.93;;
5191;SDS011;2615;44.524;11.284;2023-07-22T12:48:22;10.20;;;5.90;;
5191;SDS011;2615;44.524;11.284;2023-07-22T12:50:51;8.20;;;5.20;;
5191;SDS011;2615;44.524;11.284;2023-07-22T12:53:20;10.03;;;5.07;;
5191;SDS011;2615;44.524;11.284;2023-07-22T12:55:48;38.20;;;6.93;;
5191;SDS011;2615;44.524;11.284;2023-07-22T12:58:16;34.83;;;7.43;;
5191;SDS011;2615;44.524;11.284;2023-07-22T13:00:45;33.77;;;7.70;;
5191;SDS011;2615;44.524;11.284;2023-07-22T13:03:14;21.70;;;6.70;;
5191;SDS011;2615;44.524;11.284;2023-07-22T13:05:42;13.47;;;7.00;;
5191;SDS011;2615;44.524;11.284;2023-07-22T13:08:14;16.50;;;5.70;;
5191;SDS011;2615;44.524;11.284;2023-07-22T13:10:42;10.47;;;4.40;;
5191;SDS011;2615;44.524;11.284;2023-07-22T13:13:13;9.73;;;5.50;;
5191;SDS011;2615;44.524;11.284;2023-07-22T13:15:41;15.17;;;5.17;;
5191;SDS011;2615;44.524;11.284;2023-07-22T13:18:11;12.93;;;6.10;;
5191;SDS011;2615;44.524;11.284;2023-07-22T13:20:40;13.10;;;5.00;;
5191;SDS011;2615;44.524;11.284;2023-07-22T13:23:08;29.13;;;6.30;;
5191;SDS011;2615;44.524;11.284;2023-07-22T13:25:36;24.70;;;7.23;;
5191;SDS011;2615;44.524;11.284;2023-07-22T13:28:05;32.53;;;8.40;;
5191;SDS011;2615;44.524;11.284;2023-07-22T13:30:33;21.80;;;8.47;;
5191;SDS011;2615;44.524;11.284;2023-07-22T13:33:01;27.63;;;9.53;;
5191;SDS011;2615;44.524;11.284;2023-07-22T13:35:31;20.10;;;8.07;;
5191;SDS011;2615;44.524;11.284;2023-07-22T13:37:59;16.50;;;6.50;;
5191;SDS011;2615;44.524;11.284;2023-07-22T13:40:27;21.00;;;7.30;;
5191;SDS011;2615;44.524;11.284;2023-07-22T13:42:55;27.53;;;11.13;;
5191;SDS011;2615;44.524;11.284;2023-07-22T13:45:23;29.87;;;8.47;;
5191;SDS011;2615;44.524;11.284;2023-07-22T13:47:51;14.60;;;6.73;;
5191;SDS011;2615;44.524;11.284;2023-07-22T13:50:19;17.23;;;7.77;;
5191;SDS011;2615;44.524;11.284;2023-07-22T13:52:50;28.17;;;10.83;;
5191;SDS011;2615;44.524;11.284;2023-07-22T13:55:18;29.20;;;9.33;;
5191;SDS011;2615;44.524;11.284;2023-07-22T13:57:46;15.30;;;8.43;;
5191;SDS011;2615;44.524;11.284;2023-07-22T14:00:14;16.93;;;7.20;;
5191;SDS011;2615;44.524;11.284;2023-07-22T14:02:43;14.13;;;7.13;;
5191;SDS011;2615;44.524;11.284;2023-07-22T14:05:11;9.57;;;6.57;;
5191;SDS011;2615;44.524;11.284;2023-07-22T14:07:39;15.47;;;7.47;;
5191;SDS011;2615;44.524;11.284;2023-07-22T14:10:09;18.43;;;7.83;;
5191;SDS011;2615;44.524;11.284;2023-07-22T14:12:37;11.30;;;7.07;;
5191;SDS011;2615;44.524;11.284;2023-07-22T14:15:06;10.57;;;6.03;;
5191;SDS011;2615;44.524;11.284;2023-07-22T14:17:35;15.40;;;6.77;;
5191;SDS011;2615;44.524;11.284;2023-07-22T14:20:04;13.87;;;7.13;;
5191;SDS011;2615;44.524;11.284;2023-07-22T14:22:34;11.97;;;6.67;;
5191;SDS011;2615;44.524;11.284;2023-07-22T14:25:02;10.67;;;7.00;;
5191;SDS011;2615;44.524;11.284;2023-07-22T14:27:32;13.73;;;6.23;;
5191;SDS011;2615;44.524;11.284;2023-07-22T14:30:01;10.83;;;7.13;;
5191;SDS011;2615;44.524;11.284;2023-07-22T14:32:30;7.17;;;5.30;;
5191;SDS011;2615;44.524;11.284;2023-07-22T14:34:58;11.83;;;6.80;;
5191;SDS011;2615;44.524;11.284;2023-07-22T14:37:26;13.43;;;6.47;;
5191;SDS011;2615;44.524;11.284;2023-07-22T14:39:55;12.23;;;8.40;;
5191;SDS011;2615;44.524;11.284;2023-07-22T14:42:23;14.30;;;7.97;;
5191;SDS011;2615;44.524;11.284;2023-07-22T14:44:52;23.53;;;8.10;;
5191;SDS011;2615;44.524;11.284;2023-07-22T14:47:20;11.30;;;7.50;;
5191;SDS011;2615;44.524;11.284;2023-07-22T14:49:49;22.73;;;8.47;;
5191;SDS011;2615;44.524;11.284;2023-07-22T14:52:19;12.50;;;6.40;;
5191;SDS011;2615;44.524;11.284;2023-07-22T14:54:47;16.20;;;8.47;;
5191;SDS011;2615;44.524;11.284;2023-07-22T14:57:16;14.83;;;7.67;;
5191;SDS011;2615;44.524;11.284;2023-07-22T14:59:44;20.30;;;8.50;;
5191;SDS011;2615;44.524;11.284;2023-07-22T15:02:14;13.67;;;8.70;;
5191;SDS011;2615;44.524;11.284;2023-07-22T15:04:42;13.17;;;7.47;;
5191;SDS011;2615;44.524;11.284;2023-07-22T15:07:10;25.63;;;8.63;;